Time;durP1;ratioP1;P1;durP2;ratioP2;P2;SDS_P1;SDS_P2;PMS_P1;PMS_P2;Temp;Humidity;BMP_temperature;BMP_pressure;BME280_temperature;BME280_humidity;BME280_pressure;Samples;Min_cycle;Max_cycle;Signal;HPM_P1;HPM_P2
2021/05/15 00:01:37;;;;;;;10.70;6.57;;;;;;;14.03;68.73;99935.31;5021716;28;20030;-70
2021/05/15 00:04:04;;;;;;;6.38;5.78;;;;;;;14.14;68.31;99924.91;5021955;28;20080;-69
2021/05/15 00:06:29;;;;;;;7.45;5.05;;;;;;;14.24;68.04;99927.75;5023543;28;20046;-68
2021/05/15 00:08:55;;;;;;;7.78;5.18;;;;;;;14.26;67.87;99928.47;5022969;28;20060;-69
2021/05/15 00:11:21;;;;;;;6.68;5.97;;;;;;;14.25;68.05;99932.03;5023673;28;20112;-68
2021/05/15 00:13:47;;;;;;;9.82;5.15;;;;;;;14.03;68.31;99949.25;5020800;28;20120;-70
2021/05/15 00:16:13;;;;;;;6.20;5.22;;;;;;;14.02;68.43;99944.13;4998474;28;20044;-69
2021/05/15 00:18:39;;;;;;;12.70;5.72;;;;;;;14.04;68.58;99940.44;5022611;28;20381;-69
2021/05/15 00:21:06;;;;;;;6.32;5.35;;;;;;;13.91;69.14;99937.00;5020077;28;20068;-69
2021/05/15 00:23:33;;;;;;;6.95;5.53;;;;;;;13.93;69.17;99944.75;5023224;28;20042;-69
2021/05/15 00:25:59;;;;;;;7.78;5.35;;;;;;;14.01;68.99;99948.53;5022349;28;20616;-69
2021/05/15 00:28:27;;;;;;;9.38;5.78;;;;;;;14.14;68.41;99941.47;5022914;28;20117;-69
2021/05/15 00:30:52;;;;;;;5.38;4.53;;;;;;;14.21;68.47;99943.66;5022791;28;20116;-67
2021/05/15 00:33:19;;;;;;;9.23;5.88;;;;;;;14.16;68.45;99946.59;5018401;28;20138;-68
2021/05/15 00:35:45;;;;;;;6.57;5.70;;;;;;;14.10;68.81;99947.03;5018518;28;20065;-68
2021/05/15 00:38:11;;;;;;;6.28;5.38;;;;;;;14.21;68.32;99938.44;5023599;28;20496;-68
2021/05/15 00:40:37;;;;;;;7.30;5.68;;;;;;;14.08;68.52;99939.28;5019428;28;20025;-69
2021/05/15 00:43:05;;;;;;;7.18;6.00;;;;;;;14.16;67.90;99944.81;5019864;28;20041;-70
2021/05/15 00:45:31;;;;;;;11.57;7.13;;;;;;;14.12;68.11;99940.75;5018090;28;20036;-71
2021/05/15 00:47:56;;;;;;;8.00;6.70;;;;;;;14.09;67.94;99946.22;5021260;28;20141;-72
2021/05/15 00:50:22;;;;;;;7.63;6.18;;;;;;;14.06;68.12;99942.94;5020671;28;20050;-71
2021/05/15 00:52:48;;;;;;;7.53;6.63;;;;;;;14.00;67.84;99952.06;5017005;28;20381;-72
2021/05/15 00:55:15;;;;;;;10.50;6.88;;;;;;;14.00;68.75;99953.84;5020143;28;20038;-71
2021/05/15 00:57:41;;;;;;;7.88;7.05;;;;;;;14.08;67.95;99960.25;5024291;28;20060;-71
2021/05/15 01:00:09;;;;;;;9.00;8.10;;;;;;;14.07;67.99;99963.84;5021977;28;20034;-72
2021/05/15 01:02:35;;;;;;;11.07;9.80;;;;;;;13.97;68.65;99965.41;5019250;28;20472;-70
2021/05/15 01:05:02;;;;;;;14.93;12.23;;;;;;;14.01;68.32;99966.88;5021324;28;20045;-72
2021/05/15 01:07:28;;;;;;;19.35;14.88;;;;;;;13.97;68.67;99973.25;5018322;28;20049;-69
2021/05/15 01:09:54;;;;;;;18.25;14.25;;;;;;;13.88;69.07;99973.88;5021935;28;20037;-70
2021/05/15 01:12:19;;;;;;;22.85;15.48;;;;;;;13.92;68.71;99975.34;5018225;28;20030;-70
2021/05/15 01:14:45;;;;;;;18.92;15.10;;;;;;;13.76;68.98;99969.47;5019775;28;20365;-70
2021/05/15 01:17:11;;;;;;;16.48;14.70;;;;;;;13.92;68.61;99979.75;5022538;28;20428;-70
2021/05/15 01:19:37;;;;;;;17.55;15.18;;;;;;;13.87;68.44;99978.28;5019953;28;20132;-72
2021/05/15 01:22:08;;;;;;;17.77;14.27;;;;;;;13.85;68.82;99974.09;5024203;28;20475;-72
2021/05/15 01:24:34;;;;;;;16.70;13.45;;;;;;;13.70;68.69;99978.59;5023235;28;20049;-72
2021/05/15 01:27:04;;;;;;;15.82;13.98;;;;;;;13.75;68.84;99973.88;5023562;28;20033;-69
2021/05/15 01:29:30;;;;;;;16.92;14.07;;;;;;;13.68;68.81;99969.97;5023704;28;20052;-69
2021/05/15 01:31:55;;;;;;;15.32;13.82;;;;;;;13.64;69.50;99965.91;5020473;28;20038;-69
2021/05/15 01:34:21;;;;;;;16.75;14.68;;;;;;;13.63;68.51;99965.06;5020299;28;20029;-70
2021/05/15 01:36:47;;;;;;;16.35;13.25;;;;;;;13.59;69.30;99968.84;5023273;28;20399;-70
2021/05/15 01:39:15;;;;;;;15.98;13.50;;;;;;;13.65;69.07;99969.38;5019547;28;20544;-70
2021/05/15 01:41:43;;;;;;;17.80;14.30;;;;;;;13.63;68.89;99965.06;5020153;28;20025;-70
2021/05/15 01:44:10;;;;;;;15.27;13.52;;;;;;;13.50;68.87;99958.97;5020808;28;20480;-71
2021/05/15 01:46:36;;;;;;;14.45;12.95;;;;;;;13.50;69.14;99958.97;5021748;28;20037;-70
2021/05/15 01:49:02;;;;;;;18.50;15.30;;;;;;;13.48;68.98;99960.84;5021029;28;20046;-71
2021/05/15 01:51:28;;;;;;;20.27;12.88;;;;;;;13.42;68.83;99955.16;5021100;28;20486;-71
2021/05/15 01:53:54;;;;;;;14.43;12.13;;;;;;;13.38;69.16;99959.78;5023429;28;20507;-70
2021/05/15 01:56:22;;;;;;;13.88;12.00;;;;;;;13.27;69.14;99957.03;5024799;28;20041;-70
2021/05/15 01:58:49;;;;;;;12.93;11.70;;;;;;;13.35;68.34;99952.97;5025618;28;20045;-71
2021/05/15 02:01:15;;;;;;;12.57;11.18;;;;;;;13.30;69.06;99954.22;5022466;28;20373;-68
2021/05/15 02:03:42;;;;;;;14.50;12.68;;;;;;;13.35;68.39;99952.97;5027596;28;20083;-68
2021/05/15 02:06:09;;;;;;;14.00;10.70;;;;;;;13.39;68.43;99958.84;5023317;28;20037;-68
2021/05/15 02:08:35;;;;;;;10.73;9.63;;;;;;;13.26;68.97;99960.56;5025283;28;20039;-68
2021/05/15 02:11:01;;;;;;;12.50;11.20;;;;;;;13.32;68.70;99961.03;5024879;28;20033;-68
2021/05/15 02:13:28;;;;;;;11.93;10.30;;;;;;;13.17;69.16;99959.38;5027510;28;20041;-68
2021/05/15 02:15:55;;;;;;;16.63;9.82;;;;;;;13.23;69.01;99961.63;5025513;28;20566;-68
2021/05/15 02:18:22;;;;;;;11.43;10.32;;;;;;;13.06;69.64;99960.09;5023807;28;20058;-68
2021/05/15 02:20:48;;;;;;;11.90;8.93;;;;;;;13.06;69.49;99954.84;5025289;28;20042;-68
2021/05/15 02:23:14;;;;;;;9.75;8.73;;;;;;;13.11;69.35;99963.25;5022363;28;20037;-68
2021/05/15 02:25:43;;;;;;;10.43;9.30;;;;;;;13.18;69.72;99968.91;5025698;28;20037;-69
2021/05/15 02:28:09;;;;;;;9.65;8.65;;;;;;;13.08;69.54;99967.81;5025914;28;20440;-69
2021/05/15 02:30:35;;;;;;;9.73;7.88;;;;;;;13.13;69.29;99967.53;5025037;28;20108;-69
2021/05/15 02:33:02;;;;;;;10.43;8.82;;;;;;;13.19;69.07;99974.97;5021162;28;20042;-69
2021/05/15 02:35:28;;;;;;;12.90;9.05;;;;;;;13.14;69.44;99972.66;5024248;28;20033;-69
2021/05/15 02:37:54;;;;;;;12.93;9.85;;;;;;;13.01;69.43;99975.25;5023525;28;20061;-69
2021/05/15 02:40:21;;;;;;;9.45;7.85;;;;;;;12.98;69.80;99969.34;5023088;28;20041;-69
2021/05/15 02:42:49;;;;;;;7.88;6.50;;;;;;;13.07;69.46;99969.59;5021646;28;20048;-69
2021/05/15 02:45:17;;;;;;;7.40;6.65;;;;;;;13.13;69.40;99970.16;5022180;28;20029;-69
2021/05/15 02:47:43;;;;;;;6.70;5.68;;;;;;;13.20;68.65;99971.41;5028306;28;20042;-68
2021/05/15 02:50:15;;;;;;;6.57;5.30;;;;;;;13.02;69.00;99971.69;5026336;28;20037;-67
2021/05/15 02:52:41;;;;;;;6.32;5.32;;;;;;;13.04;69.13;99968.94;5025354;28;20432;-67
2021/05/15 02:55:09;;;;;;;6.07;3.80;;;;;;;13.03;68.86;99975.97;5021870;28;20036;-67
2021/05/15 02:57:36;;;;;;;6.47;4.75;;;;;;;13.10;69.21;99971.16;5023780;28;20116;-67
2021/05/15 03:00:04;;;;;;;5.63;3.88;;;;;;;13.07;68.84;99967.00;5023668;28;20048;-67
2021/05/15 03:02:30;;;;;;;4.00;3.20;;;;;;;13.01;68.95;99972.63;5020763;28;20092;-68
2021/05/15 03:04:55;;;;;;;4.38;3.70;;;;;;;12.99;68.95;99971.88;5022345;28;20447;-67
2021/05/15 03:07:21;;;;;;;6.93;3.63;;;;;;;13.05;68.98;99970.66;5021071;28;20029;-67
2021/05/15 03:09:47;;;;;;;5.13;3.25;;;;;;;12.91;69.14;99968.06;5021665;28;20580;-67
2021/05/15 03:12:13;;;;;;;3.90;2.45;;;;;;;12.91;68.88;99970.69;5023301;28;20384;-67
2021/05/15 03:14:39;;;;;;;4.65;3.25;;;;;;;12.96;68.66;99971.25;5024706;28;20403;-66
2021/05/15 03:17:05;;;;;;;6.40;3.15;;;;;;;13.06;68.88;99973.16;5018872;28;20038;-69
2021/05/15 03:19:31;;;;;;;3.17;2.72;;;;;;;13.00;68.88;99980.56;5025236;28;20025;-68
2021/05/15 03:21:57;;;;;;;3.53;2.80;;;;;;;12.88;69.51;99982.19;5022407;28;20083;-67
2021/05/15 03:24:23;;;;;;;7.43;3.50;;;;;;;12.94;69.51;99975.72;5023525;28;20041;-67
2021/05/15 03:26:48;;;;;;;5.15;3.00;;;;;;;12.89;69.63;99976.03;5021975;28;20049;-67
2021/05/15 03:29:15;;;;;;;3.67;3.05;;;;;;;12.87;69.69;99980.50;5021744;28;20069;-67
2021/05/15 03:31:40;;;;;;;3.83;3.33;;;;;;;12.94;69.63;99987.00;5021031;28;20045;-67
2021/05/15 03:34:08;;;;;;;4.00;3.20;;;;;;;13.01;69.16;99987.47;5026254;28;20041;-67
2021/05/15 03:36:34;;;;;;;8.98;4.10;;;;;;;12.93;69.70;99979.28;5018794;28;20052;-67
2021/05/15 03:39:01;;;;;;;4.50;3.65;;;;;;;12.92;69.60;99972.38;5020030;28;20049;-67
2021/05/15 03:41:27;;;;;;;3.85;3.00;;;;;;;12.85;70.03;99977.16;5023474;28;20041;-68
2021/05/15 03:43:53;;;;;;;5.95;3.72;;;;;;;12.87;69.58;99969.22;5022297;28;20036;-68
2021/05/15 03:46:18;;;;;;;4.32;3.85;;;;;;;13.07;68.51;99972.22;5026294;28;20038;-69
2021/05/15 03:48:44;;;;;;;4.15;3.75;;;;;;;12.89;68.96;99973.41;5029845;28;20049;-69
2021/05/15 03:51:09;;;;;;;5.65;4.53;;;;;;;12.96;68.82;99974.69;5035215;28;20036;-70
2021/05/15 03:53:35;;;;;;;5.55;4.35;;;;;;;12.89;69.22;99978.66;5043046;28;20052;-69
2021/05/15 03:56:01;;;;;;;8.20;4.60;;;;;;;12.97;69.37;99976.38;5037405;28;20040;-69
2021/05/15 03:58:27;;;;;;;5.32;4.82;;;;;;;12.75;69.80;99986.53;5049496;28;20037;-70
2021/05/15 04:00:53;;;;;;;8.07;4.47;;;;;;;12.78;69.39;99991.53;5047231;28;20064;-72
2021/05/15 04:03:19;;;;;;;6.60;4.07;;;;;;;12.83;67.77;99999.94;5040925;28;20044;-71
2021/05/15 04:05:44;;;;;;;7.20;4.78;;;;;;;12.58;68.93;99995.44;5049003;28;20071;-73
2021/05/15 04:08:10;;;;;;;5.80;4.57;;;;;;;12.56;67.99;99998.13;5052457;28;20476;-74
2021/05/15 04:10:37;;;;;;;10.50;5.57;;;;;;;12.64;67.32;100004.66;5044560;28;20376;-74
2021/05/15 04:13:32;;;;;;;14.85;5.57;;;;;;;12.70;67.26;100009.50;5042727;28;20034;-73
2021/05/15 04:16:02;;;;;;;10.35;5.70;;;;;;;12.65;67.60;100006.34;5042700;28;20037;-72
2021/05/15 04:18:30;;;;;;;6.38;5.47;;;;;;;12.74;67.30;100001.38;5048914;28;20042;-73
2021/05/15 04:20:56;;;;;;;9.02;4.97;;;;;;;12.65;67.66;100006.34;5036009;28;20069;-71
2021/05/15 04:23:23;;;;;;;8.88;5.53;;;;;;;12.61;68.07;100003.06;5049949;28;20810;-73
2021/05/15 04:25:49;;;;;;;8.45;5.78;;;;;;;12.66;68.51;100002.78;5050333;28;20495;-71
2021/05/15 04:28:15;;;;;;;7.60;5.38;;;;;;;12.63;69.13;100005.59;5038948;28;20062;-72
2021/05/15 04:30:42;;;;;;;7.30;5.47;;;;;;;12.70;68.76;100010.34;5039722;28;20040;-70
2021/05/15 04:33:07;;;;;;;10.55;6.70;;;;;;;12.71;69.11;100019.03;5040243;28;20049;-70
2021/05/15 04:35:33;;;;;;;6.93;6.10;;;;;;;12.74;69.05;100014.47;5046044;28;20065;-66
2021/05/15 04:38:00;;;;;;;10.60;6.10;;;;;;;12.80;69.47;100016.69;5044783;28;20410;-68
2021/05/15 04:40:26;;;;;;;6.28;5.57;;;;;;;12.79;69.73;100014.16;5046738;28;20041;-69
2021/05/15 04:42:52;;;;;;;7.63;5.45;;;;;;;12.93;70.04;100021.13;5048057;28;20051;-69
2021/05/15 04:45:17;;;;;;;7.63;5.28;;;;;;;13.03;69.86;100027.47;5047644;28;20075;-69
2021/05/15 04:47:43;;;;;;;7.32;5.88;;;;;;;13.20;69.66;100024.59;5050328;28;20064;-69
2021/05/15 04:50:10;;;;;;;8.43;6.68;;;;;;;13.28;69.66;100017.13;5049690;28;20372;-72
2021/05/15 04:52:37;;;;;;;6.53;5.13;;;;;;;13.35;69.44;100022.81;5051555;28;20037;-68
2021/05/15 04:55:04;;;;;;;10.63;5.43;;;;;;;13.54;69.63;100022.47;5035224;28;20037;-71
2021/05/15 04:57:30;;;;;;;6.82;5.57;;;;;;;13.86;68.89;100033.44;5044782;28;20059;-70
2021/05/15 04:59:56;;;;;;;17.52;5.30;;;;;;;14.50;67.60;100023.81;5047392;28;20482;-73
2021/05/15 05:02:21;;;;;;;30.63;6.80;;;;;;;14.96;65.78;100022.34;5045111;28;20112;-72
2021/05/15 05:04:47;;;;;;;20.45;6.82;;;;;;;15.16;64.92;100019.13;5050078;28;20025;-70
2021/05/15 05:07:13;;;;;;;32.30;7.20;;;;;;;15.35;64.20;100019.47;5049392;28;20048;-71
2021/05/15 05:09:39;;;;;;;22.92;6.10;;;;;;;15.54;63.12;100011.03;5045313;28;20111;-71
2021/05/15 05:12:05;;;;;;;18.50;5.45;;;;;;;15.76;61.97;100012.09;5035665;28;20041;-70
2021/05/15 05:14:31;;;;;;;24.42;5.70;;;;;;;15.96;61.39;100012.25;5043088;28;20033;-71
2021/05/15 05:16:56;;;;;;;9.85;5.22;;;;;;;16.20;60.36;100009.56;5037219;28;20049;-73
2021/05/15 05:19:24;;;;;;;9.70;4.80;;;;;;;16.35;59.73;100004.91;5032146;28;20030;-70
2021/05/15 05:21:52;;;;;;;8.40;4.55;;;;;;;16.82;59.02;100005.59;5032014;28;20095;-69
2021/05/15 05:24:19;;;;;;;10.57;3.83;;;;;;;17.00;57.45;100009.41;5032378;28;20052;-70
2021/05/15 05:26:45;;;;;;;13.95;4.95;;;;;;;17.27;56.86;100010.78;5036496;28;20127;-70
2021/05/15 05:29:11;;;;;;;7.25;4.32;;;;;;;17.44;55.99;100007.59;5035732;28;20692;-66
2021/05/15 05:31:39;;;;;;;4.13;3.45;;;;;;;17.88;54.96;100004.88;5042565;28;20112;-75
2021/05/15 05:34:05;;;;;;;5.90;3.42;;;;;;;17.88;54.94;100002.25;5031847;28;20041;-74
2021/05/15 05:36:32;;;;;;;6.75;4.00;;;;;;;18.02;54.61;100005.38;5033585;28;20025;-77
2021/05/15 05:38:58;;;;;;;5.70;3.13;;;;;;;18.03;54.88;100009.69;5027445;28;20189;-80
2021/05/15 05:41:24;;;;;;;10.55;4.72;;;;;;;18.04;54.75;100007.88;5020650;28;20486;-73
2021/05/15 05:43:53;;;;;;;7.65;3.67;;;;;;;18.37;53.10;100008.59;5032709;28;20490;-76
2021/05/15 05:46:20;;;;;;;4.43;2.40;;;;;;;18.59;52.25;100005.81;5034900;28;20045;-77
2021/05/15 05:48:47;;;;;;;8.80;2.30;;;;;;;18.65;51.66;99993.88;5031243;28;20092;-78
2021/05/15 05:51:13;;;;;;;3.60;3.00;;;;;;;18.99;51.19;99989.94;5047734;28;20055;-79
2021/05/15 05:53:38;;;;;;;4.07;2.80;;;;;;;19.33;49.63;99994.81;5035735;28;20045;-76
2021/05/15 05:56:05;;;;;;;4.65;3.00;;;;;;;19.40;49.65;99988.03;5033519;28;20115;-76
2021/05/15 05:58:31;;;;;;;3.50;2.55;;;;;;;19.88;48.90;99989.81;5033755;28;20045;-72
2021/05/15 06:00:57;;;;;;;5.85;2.65;;;;;;;20.04;47.12;99990.06;5034200;28;20041;-75
2021/05/15 06:03:23;;;;;;;4.47;2.38;;;;;;;20.59;46.19;99991.94;5034989;28;20374;-74
2021/05/15 06:05:49;;;;;;;3.65;2.58;;;;;;;20.88;45.69;99997.09;5028819;28;20100;-77
2021/05/15 06:08:15;;;;;;;7.22;3.00;;;;;;;21.16;44.63;99996.06;5036158;28;20056;-75
2021/05/15 06:10:41;;;;;;;5.78;3.22;;;;;;;21.00;44.81;100003.03;5035090;28;20423;-75
2021/05/15 06:13:09;;;;;;;6.30;3.20;;;;;;;21.34;45.04;100001.38;5034035;28;20025;-74
2021/05/15 06:15:35;;;;;;;4.97;3.40;;;;;;;21.53;42.85;99996.94;5039253;28;20049;-74
2021/05/15 06:18:02;;;;;;;3.50;2.22;;;;;;;21.56;42.64;99997.44;5035570;28;20049;-77
2021/05/15 06:20:28;;;;;;;2.45;1.90;;;;;;;21.74;40.64;100001.91;5035268;28;20049;-76
2021/05/15 06:22:54;;;;;;;3.50;1.63;;;;;;;21.29;41.88;99997.50;5035604;28;20048;-75
2021/05/15 06:25:20;;;;;;;2.58;1.55;;;;;;;21.70;40.86;100001.38;5035682;28;20038;-74
2021/05/15 06:27:45;;;;;;;5.15;2.47;;;;;;;21.68;40.91;100004.19;5035044;28;20029;-79
2021/05/15 06:30:11;;;;;;;1.92;1.60;;;;;;;22.31;40.98;100005.75;5035498;28;20120;-73
2021/05/15 06:32:37;;;;;;;3.28;1.30;;;;;;;22.48;38.09;99996.91;5034827;28;20503;-74
2021/05/15 06:35:04;;;;;;;3.90;1.70;;;;;;;22.23;39.53;100009.22;5034837;28;20033;-74
2021/05/15 06:37:29;;;;;;;2.80;1.27;;;;;;;22.32;37.98;100004.78;5035284;28;20033;-74
2021/05/15 06:39:55;;;;;;;3.90;1.08;;;;;;;22.28;38.92;99994.66;5035273;28;20037;-79
2021/05/15 06:42:21;;;;;;;4.68;1.30;;;;;;;22.43;37.82;99998.38;5028510;28;20041;-76
2021/05/15 06:44:48;;;;;;;2.80;1.88;;;;;;;22.11;38.67;99999.03;5017860;28;20088;-74
2021/05/15 06:47:16;;;;;;;3.85;1.50;;;;;;;22.17;40.42;100011.69;5035520;28;20057;-76
2021/05/15 06:49:43;;;;;;;2.40;1.33;;;;;;;22.48;40.17;99998.72;5034482;28;20033;-72
2021/05/15 06:52:08;;;;;;;1.75;1.45;;;;;;;22.92;37.26;99988.78;5035136;28;20124;-76
2021/05/15 06:54:34;;;;;;;5.10;2.03;;;;;;;22.65;38.55;100003.13;5027209;28;20068;-74
2021/05/15 06:57:00;;;;;;;2.10;1.88;;;;;;;22.47;38.24;100000.53;5044715;28;20037;-76
2021/05/15 06:59:26;;;;;;;3.53;1.88;;;;;;;22.88;38.57;100006.03;5047622;28;20025;-72
2021/05/15 07:01:51;;;;;;;4.47;1.50;;;;;;;22.46;38.39;99998.03;5036114;28;20061;-71
2021/05/15 07:04:17;;;;;;;3.20;1.60;;;;;;;22.31;38.95;99997.78;5052483;28;20029;-72
2021/05/15 07:06:44;;;;;;;5.50;1.95;;;;;;;22.18;38.88;99992.09;5051037;28;20402;-72
2021/05/15 07:09:10;;;;;;;2.60;1.60;;;;;;;22.85;37.79;99990.41;5035427;28;20041;-71
2021/05/15 07:11:36;;;;;;;1.88;1.40;;;;;;;22.51;38.65;99998.41;5041584;28;20120;-72
2021/05/15 07:14:02;;;;;;;6.57;2.72;;;;;;;23.02;37.78;99988.63;5049466;28;20092;-72
2021/05/15 07:16:28;;;;;;;5.43;2.83;;;;;;;22.03;39.68;99988.31;5043913;28;20060;-73
2021/05/15 07:18:53;;;;;;;4.70;2.63;;;;;;;22.78;38.27;99985.88;5045268;28;20041;-72
2021/05/15 07:21:19;;;;;;;5.65;3.15;;;;;;;23.15;36.75;99991.63;5049661;28;20385;-72
2021/05/15 07:23:45;;;;;;;4.60;2.42;;;;;;;23.05;37.29;99996.28;5041502;28;20120;-71
2021/05/15 07:26:12;;;;;;;3.50;1.88;;;;;;;24.00;37.16;100005.47;5051153;28;20399;-66
2021/05/15 07:28:38;;;;;;;6.82;2.40;;;;;;;23.89;36.61;100000.50;5051825;28;20041;-67
2021/05/15 07:31:05;;;;;;;4.25;1.90;;;;;;;24.59;35.08;100005.16;5052384;28;20107;-67
2021/05/15 07:33:31;;;;;;;4.40;1.67;;;;;;;22.92;37.21;100001.25;5046554;28;20040;-66
2021/05/15 07:35:56;;;;;;;5.28;1.80;;;;;;;23.52;34.88;99991.16;5035214;28;20022;-67
2021/05/15 07:38:23;;;;;;;2.92;1.25;;;;;;;23.98;34.89;99994.16;5047014;28;20387;-68
2021/05/15 07:40:49;;;;;;;2.20;1.60;;;;;;;23.66;35.10;99989.72;5046090;28;20041;-67
2021/05/15 07:43:22;;;;;;;9.70;1.70;;;;;;;25.16;34.13;99990.72;5026403;28;20041;-67
2021/05/15 07:45:55;;;;;;;3.05;1.38;;;;;;;24.97;33.34;99997.28;5021965;28;20121;-69
2021/05/15 07:48:43;;;;;;;6.15;2.03;;;;;;;25.41;33.25;100008.22;5042836;28;20057;-75
2021/05/15 07:51:13;;;;;;;4.47;1.55;;;;;;;25.37;33.63;100011.41;5037200;28;20053;-78
2021/05/15 07:53:39;;;;;;;4.82;1.48;;;;;;;24.89;32.52;100016.84;5034779;28;20044;-79
2021/05/15 07:56:06;;;;;;;4.40;1.20;;;;;;;24.79;33.09;100016.22;5039870;28;20033;-75
2021/05/15 07:58:32;;;;;;;2.58;2.33;;;;;;;25.25;32.81;100017.19;5041733;28;20029;-75
2021/05/15 08:00:59;;;;;;;3.67;1.80;;;;;;;25.71;31.28;100021.66;5045700;28;20086;-79
2021/05/15 08:03:25;;;;;;;3.03;1.60;;;;;;;24.79;32.58;100027.72;5022352;28;20611;-77
2021/05/15 08:05:50;;;;;;;2.85;1.52;;;;;;;25.21;31.94;100023.88;5020916;28;20037;-77
2021/05/15 08:08:17;;;;;;;2.03;1.30;;;;;;;25.19;32.31;100022.38;5018683;28;20034;-75
2021/05/15 08:10:42;;;;;;;5.32;2.30;;;;;;;25.27;32.36;100019.66;5017563;28;20088;-77
2021/05/15 08:13:08;;;;;;;6.07;2.38;;;;;;;24.21;33.51;100022.75;5016481;28;20033;-76
2021/05/15 08:15:35;;;;;;;4.55;2.05;;;;;;;23.45;34.79;100027.41;5028739;28;20025;-79
2021/05/15 08:18:01;;;;;;;15.27;2.63;;;;;;;23.10;35.43;100017.06;5047327;28;20025;-65
2021/05/15 08:20:27;;;;;;;3.35;2.17;;;;;;;24.21;34.40;100026.22;5039596;28;20037;-67
2021/05/15 08:22:53;;;;;;;2.03;1.77;;;;;;;23.61;35.23;100025.78;5032846;28;20029;-67
2021/05/15 08:25:20;;;;;;;3.03;2.20;;;;;;;23.38;34.74;100021.06;5044507;28;20040;-66
2021/05/15 08:27:51;;;;;;;3.97;1.48;;;;;;;24.11;34.83;100032.75;5042255;28;20116;-66
2021/05/15 08:30:19;;;;;;;4.53;1.92;;;;;;;24.15;34.44;100028.75;5032818;28;20052;-66
2021/05/15 08:32:46;;;;;;;7.70;2.47;;;;;;;24.48;33.54;100025.00;5030954;28;20060;-65
2021/05/15 08:35:14;;;;;;;3.05;1.50;;;;;;;25.27;33.10;100030.31;5000974;28;20036;-66
2021/05/15 08:37:39;;;;;;;4.55;1.60;;;;;;;25.48;32.71;100027.84;5023429;28;20033;-66
2021/05/15 08:40:07;;;;;;;3.22;1.77;;;;;;;24.84;32.31;100024.53;5024693;28;20044;-65
2021/05/15 08:42:38;;;;;;;1.92;1.55;;;;;;;24.33;32.79;100037.34;5005720;28;20038;-69
2021/05/15 08:45:05;;;;;;;2.70;1.88;;;;;;;24.22;34.05;100035.88;5025803;28;20049;-70
2021/05/15 08:47:33;;;;;;;2.92;2.28;;;;;;;24.93;32.39;100022.66;5023226;28;20096;-68
2021/05/15 08:50:01;;;;;;;2.45;1.73;;;;;;;25.29;32.35;100020.28;5019971;28;20362;-70
2021/05/15 08:52:27;;;;;;;4.38;2.70;;;;;;;24.59;34.88;100023.81;5018939;28;20038;-69
2021/05/15 08:54:54;;;;;;;4.47;2.70;;;;;;;24.21;35.11;100028.06;5000787;28;20033;-66
2021/05/15 08:57:21;;;;;;;4.65;3.22;;;;;;;23.86;35.54;100024.78;5012156;28;20049;-66
2021/05/15 08:59:51;;;;;;;4.35;2.38;;;;;;;23.81;35.94;100023.63;5030740;28;20533;-69
2021/05/15 09:02:23;;;;;;;6.63;2.83;;;;;;;24.28;35.19;100029.03;5040056;28;20029;-71
2021/05/15 09:05:09;;;;;;;4.95;2.70;;;;;;;23.87;36.20;100026.47;5037585;28;20041;-68
2021/05/15 09:07:48;;;;;;;5.68;3.38;;;;;;;23.44;36.50;100024.94;5019621;28;20045;-67
2021/05/15 09:10:18;;;;;;;7.03;3.63;;;;;;;22.76;37.67;100031.22;5037141;28;20049;-67
2021/05/15 09:12:53;;;;;;;2.75;2.20;;;;;;;22.85;37.50;100027.59;5033389;28;20455;-68
2021/05/15 09:15:20;;;;;;;5.03;2.63;;;;;;;23.39;37.36;100024.59;5034879;28;20037;-69
2021/05/15 09:17:49;;;;;;;6.18;2.22;;;;;;;23.63;35.48;100029.13;5036541;28;20049;-67
2021/05/15 09:20:54;;;;;;;7.68;2.35;;;;;;;23.29;36.77;100022.09;5033942;28;20049;-71
2021/05/15 09:24:14;;;;;;;4.93;3.17;;;;;;;22.97;36.48;100021.03;5032135;28;20041;-74
2021/05/15 09:26:49;;;;;;;5.93;2.85;;;;;;;23.21;36.43;100012.25;5033984;28;20069;-73
2021/05/15 09:29:16;;;;;;;6.65;2.58;;;;;;;23.34;36.18;100008.31;5038454;28;20482;-73
2021/05/15 09:31:46;;;;;;;3.30;2.03;;;;;;;23.16;36.81;100003.94;5035745;28;20046;-72
2021/05/15 09:34:13;;;;;;;4.57;2.28;;;;;;;23.16;36.28;100005.75;5035972;28;20065;-71
2021/05/15 09:36:47;;;;;;;4.13;3.13;;;;;;;23.12;36.55;100005.28;5046094;28;20091;-71
2021/05/15 09:39:23;;;;;;;4.43;3.00;;;;;;;23.26;36.39;100007.28;5036007;28;20045;-72
2021/05/15 09:41:58;;;;;;;4.75;2.55;;;;;;;23.45;36.75;100011.47;5034248;28;20136;-71
2021/05/15 09:44:26;;;;;;;4.55;2.83;;;;;;;23.49;36.93;100012.81;5036146;28;20046;-71
2021/05/15 09:46:54;;;;;;;3.58;2.45;;;;;;;23.03;37.39;100008.06;5040882;28;20080;-72
2021/05/15 09:49:27;;;;;;;6.40;3.22;;;;;;;22.92;36.43;99998.59;5036657;28;20395;-72
2021/05/15 09:52:05;;;;;;;5.90;3.25;;;;;;;22.97;37.26;99997.09;5034309;28;20049;-72
2021/05/15 09:54:35;;;;;;;4.72;2.78;;;;;;;23.24;36.99;99995.97;5036789;28;20041;-73
2021/05/15 09:57:10;;;;;;;7.10;2.60;;;;;;;23.42;37.29;99995.81;5035984;28;20037;-73
2021/05/15 09:59:49;;;;;;;5.30;2.75;;;;;;;23.18;37.52;99995.81;5035717;28;20057;-72
2021/05/15 10:02:19;;;;;;;5.80;2.50;;;;;;;22.69;38.31;99987.66;5033120;28;20034;-73
2021/05/15 10:04:51;;;;;;;4.78;2.80;;;;;;;22.14;38.16;99993.41;5035595;28;20076;-73
2021/05/15 10:07:24;;;;;;;4.25;2.53;;;;;;;22.75;38.26;99979.91;5030765;28;20057;-71
2021/05/15 10:09:51;;;;;;;5.90;3.00;;;;;;;22.18;38.05;99978.81;5021639;28;20118;-72
2021/05/15 10:12:19;;;;;;;4.00;2.40;;;;;;;22.45;37.72;99969.81;5036955;28;20324;-74
2021/05/15 10:14:46;;;;;;;2.85;2.38;;;;;;;22.43;37.38;99977.97;5036548;28;20038;-70
2021/05/15 10:17:13;;;;;;;8.13;1.80;;;;;;;22.57;37.94;99973.00;5042425;28;20688;-66
2021/05/15 10:19:40;;;;;;;2.90;2.15;;;;;;;22.94;38.13;99968.16;5036321;28;20045;-68
2021/05/15 10:22:07;;;;;;;4.65;2.25;;;;;;;22.70;37.83;99976.06;5034703;28;20037;-67
2021/05/15 10:24:36;;;;;;;6.03;2.42;;;;;;;22.71;37.97;99972.41;5038391;28;20399;-67
2021/05/15 10:27:05;;;;;;;3.78;2.60;;;;;;;22.35;38.96;99972.59;5051529;28;20049;-67
2021/05/15 10:29:39;;;;;;;3.45;2.22;;;;;;;22.40;38.79;99972.13;5036194;28;20140;-67
2021/05/15 10:32:15;;;;;;;;;;;;;;;22.43;38.86;99977.97;5034627;28;20068;-67
2021/05/15 10:34:48;;;;;;;3.47;2.78;;;;;;;22.34;38.34;99968.28;5028494;28;20433;-65
2021/05/15 10:37:21;;;;;;;3.25;2.83;;;;;;;22.41;38.15;99971.97;5021161;28;20053;-71
2021/05/15 10:39:49;;;;;;;5.68;2.15;;;;;;;22.75;38.17;99955.16;5040562;28;20060;-73
2021/05/15 10:42:33;;;;;;;3.13;2.08;;;;;;;22.94;37.59;99954.06;5043186;28;20120;-72
2021/05/15 10:45:01;;;;;;;2.58;1.77;;;;;;;22.69;37.86;99945.16;5045558;28;20048;-71
2021/05/15 10:47:39;;;;;;;4.78;2.63;;;;;;;22.74;37.86;99948.16;5046657;28;20080;-72
2021/05/15 10:50:16;;;;;;;5.85;3.92;;;;;;;23.00;37.65;99938.28;5042677;28;20566;-66
2021/05/15 10:52:47;;;;;;;4.10;2.80;;;;;;;22.97;37.94;99943.09;5034948;28;20044;-68
2021/05/15 10:55:32;;;;;;;5.63;3.25;;;;;;;22.79;37.95;99935.22;5027200;28;20508;-70
2021/05/15 10:58:11;;;;;;;2.50;2.30;;;;;;;22.84;37.64;99935.56;5034278;28;20095;-71
2021/05/15 11:00:39;;;;;;;3.65;2.33;;;;;;;22.84;37.59;99943.53;5037379;28;20598;-72
2021/05/15 11:03:07;;;;;;;3.75;2.10;;;;;;;23.01;37.53;99941.78;5034432;28;20049;-71
2021/05/15 11:05:47;;;;;;;4.30;1.90;;;;;;;23.10;38.89;99945.28;5034451;28;20034;-71
2021/05/15 11:08:24;;;;;;;3.28;2.25;;;;;;;23.23;38.02;99938.47;5046469;28;20068;-69
2021/05/15 11:10:52;;;;;;;13.32;2.90;;;;;;;23.11;38.58;99930.97;5028636;28;20076;-71
2021/05/15 11:13:20;;;;;;;4.97;2.10;;;;;;;23.23;38.06;99935.81;5033840;28;20049;-72
2021/05/15 11:15:47;;;;;;;8.18;2.88;;;;;;;23.34;38.09;99934.66;5033970;28;20113;-74
2021/05/15 11:18:33;;;;;;;4.20;2.30;;;;;;;23.25;37.49;99935.66;5015695;28;20049;-71
2021/05/15 11:21:06;;;;;;;4.95;2.83;;;;;;;22.78;37.82;99925.59;5044248;28;20049;-72
2021/05/15 11:23:36;;;;;;;7.70;2.78;;;;;;;22.46;38.03;99919.19;5032005;28;20063;-70
2021/05/15 11:26:06;;;;;;;3.92;2.38;;;;;;;22.19;39.33;99922.06;5038873;28;20033;-70
2021/05/15 11:28:34;;;;;;;5.90;3.05;;;;;;;22.12;39.56;99923.72;5043856;28;20036;-70
2021/05/15 11:31:08;;;;;;;4.00;2.83;;;;;;;22.11;40.88;99914.09;5040307;28;20171;-72
2021/05/15 11:33:35;;;;;;;2.40;2.20;;;;;;;22.39;40.31;99912.88;5044769;28;20048;-71